createdAt,value
2022-08-16T00:00:25.058Z,96141.68
2022-08-16T00:03:13.677Z,96137.70
2022-08-16T00:05:48.466Z,96141.94
2022-08-16T00:08:36.078Z,96148.14
2022-08-16T00:11:15.586Z,96147.44
2022-08-16T00:13:53.526Z,96151.30
2022-08-16T00:17:05.504Z,96150.38
2022-08-16T00:19:22.329Z,96148.05
2022-08-16T00:21:56.135Z,96149.66
2022-08-16T00:24:31.392Z,96151.75
2022-08-16T00:27:03.351Z,96151.77
2022-08-16T00:29:31.448Z,96149.21
2022-08-16T00:32:05.939Z,96152.09
2022-08-16T00:34:43.894Z,96159.03
2022-08-16T00:37:17.130Z,96159.05
2022-08-16T00:39:47.774Z,96156.40
2022-08-16T00:42:30.244Z,96153.86
2022-08-16T00:45:25.085Z,96153.41
2022-08-16T00:47:54.912Z,96152.84
2022-08-16T00:50:35.668Z,96151.01
2022-08-16T00:53:11.947Z,96150.45
2022-08-16T00:55:47.009Z,96145.73
2022-08-16T00:58:18.793Z,96142.84
2022-08-16T01:01:08.452Z,96145.16
2022-08-16T01:03:41.433Z,96147.86
2022-08-16T01:06:40.248Z,96149.27
2022-08-16T01:09:06.105Z,96149.56
2022-08-16T01:11:53.791Z,96147.83
2022-08-16T01:14:30.061Z,96147.55
2022-08-16T01:17:01.670Z,96147.02
2022-08-16T01:19:35.214Z,96143.13
2022-08-16T01:22:47.427Z,96143.65
2022-08-16T01:25:07.796Z,96146.84
2022-08-16T01:27:41.913Z,96145.39
2022-08-16T01:30:20.500Z,96145.50
2022-08-16T01:32:56.398Z,96147.95
2022-08-16T01:35:46.148Z,96145.55
2022-08-16T01:38:25.631Z,96140.71
2022-08-16T01:41:05.876Z,96136.71
2022-08-16T01:43:39.412Z,96137.95
2022-08-16T01:46:37.885Z,96135.55
2022-08-16T01:49:22.459Z,96139.77
2022-08-16T01:52:00.942Z,96145.56
2022-08-16T01:54:43.273Z,96146.12
2022-08-16T01:57:12.935Z,96147.36
2022-08-16T01:59:42.016Z,96142.16
2022-08-16T02:02:27.529Z,96138.91
2022-08-16T02:05:00.260Z,96139.95
2022-08-16T02:07:30.677Z,96142.45
2022-08-16T02:09:59.819Z,96138.77
2022-08-16T02:12:51.336Z,96135.93
2022-08-16T02:15:28.429Z,96138.88
2022-08-16T02:17:59.363Z,96139.66
2022-08-16T02:20:35.727Z,96135.68
2022-08-16T02:23:08.884Z,96136.70
2022-08-16T02:25:51.921Z,96138.63
2022-08-16T02:28:23.691Z,96141.95
2022-08-16T02:30:57.925Z,96142.66
2022-08-16T02:33:42.855Z,96144.58
2022-08-16T02:36:47.753Z,96146.63
2022-08-16T02:39:19.673Z,96150.38
2022-08-16T02:41:53.594Z,96150.55
2022-08-16T02:44:23.479Z,96151.75
2022-08-16T02:46:55.758Z,96153.99
2022-08-16T02:49:58.164Z,96155.25
2022-08-16T02:52:17.324Z,96158.48
2022-08-16T02:54:55.562Z,96157.81
2022-08-16T02:57:24.637Z,96158.70
2022-08-16T02:59:52.963Z,96161.98
2022-08-16T03:02:21.246Z,96167.68
2022-08-16T03:05:01.715Z,96169.61
2022-08-16T03:07:30.393Z,96172.20
2022-08-16T03:10:09.648Z,96170.98
2022-08-16T03:12:55.764Z,96174.53
2022-08-16T03:15:27.647Z,96175.00
2022-08-16T03:17:56.639Z,96178.25
2022-08-16T03:20:32.600Z,96176.38
2022-08-16T03:23:07.812Z,96174.35
2022-08-16T03:25:40.969Z,96177.64
2022-08-16T03:28:17.055Z,96179.37
2022-08-16T03:30:45.713Z,96183.27
2022-08-16T03:33:16.973Z,96180.20
2022-08-16T03:35:51.400Z,96177.44
2022-08-16T03:38:32.452Z,96178.73
2022-08-16T03:41:25.722Z,96177.36
2022-08-16T03:43:59.995Z,96178.84
2022-08-16T03:46:47.338Z,96179.37
2022-08-16T03:49:22.577Z,96180.30
2022-08-16T03:51:53.279Z,96184.76
2022-08-16T03:54:23.761Z,96189.11
2022-08-16T03:56:57.887Z,96185.98
2022-08-16T03:59:31.470Z,96188.34
2022-08-16T04:02:06.057Z,96186.46
2022-08-16T04:04:41.043Z,96182.02
2022-08-16T04:07:09.734Z,96186.05
2022-08-16T04:09:41.096Z,96188.14
2022-08-16T04:13:04.265Z,96192.09
2022-08-16T04:15:02.351Z,96194.55
2022-08-16T04:17:31.393Z,96192.09
2022-08-16T04:19:59.899Z,96191.63
2022-08-16T04:22:29.640Z,96187.59
2022-08-16T04:25:02.138Z,96184.80
2022-08-16T04:27:35.072Z,96181.96
2022-08-16T04:30:11.068Z,96180.00
2022-08-16T04:32:44.741Z,96175.97
2022-08-16T04:35:22.718Z,96178.68
2022-08-16T04:37:53.707Z,96180.66
2022-08-16T04:40:27.498Z,96177.26
2022-08-16T04:42:56.888Z,96179.33
2022-08-16T04:45:35.711Z,96184.04
2022-08-16T04:48:06.587Z,96183.97
2022-08-16T04:50:43.528Z,96183.64
2022-08-16T04:53:16.798Z,96186.36
2022-08-16T04:55:53.334Z,96189.13
2022-08-16T04:58:44.082Z,96189.83
2022-08-16T05:01:12.429Z,96191.85
2022-08-16T05:04:00.951Z,96197.34
2022-08-16T05:06:44.713Z,96200.23
2022-08-16T05:09:22.995Z,96192.89
2022-08-16T05:11:57.409Z,96194.10
2022-08-16T05:14:45.157Z,96193.98
2022-08-16T05:17:24.784Z,96194.44
2022-08-16T05:19:57.491Z,96196.99
2022-08-16T05:22:28.666Z,96194.33
2022-08-16T05:24:58.722Z,96192.46
2022-08-16T05:27:27.523Z,96196.00
2022-08-16T05:30:00.793Z,96194.28
2022-08-16T05:32:36.485Z,96200.70
2022-08-16T05:35:15.609Z,96205.73
2022-08-16T05:38:03.256Z,96213.20
2022-08-16T05:40:57.324Z,96217.23
2022-08-16T05:43:32.031Z,96219.34
2022-08-16T05:46:00.856Z,96224.02
2022-08-16T05:48:29.333Z,96231.94
2022-08-16T05:51:02.037Z,96231.00
2022-08-16T05:53:30.744Z,96229.75
2022-08-16T05:56:19.492Z,96233.83
2022-08-16T05:58:48.736Z,96229.26
2022-08-16T06:01:17.387Z,96226.42
2022-08-16T06:03:48.240Z,96225.49
2022-08-16T06:06:28.936Z,96224.38
2022-08-16T06:08:58.196Z,96222.58
2022-08-16T06:11:26.999Z,96225.35
2022-08-16T06:13:59.133Z,96221.31
2022-08-16T06:16:39.457Z,96217.90
2022-08-16T06:19:08.022Z,96227.58
2022-08-16T06:21:40.527Z,96228.55
2022-08-16T06:24:52.890Z,96230.17
2022-08-16T06:26:58.479Z,96226.46
2022-08-16T06:29:30.163Z,96227.60
2022-08-16T06:31:58.631Z,96221.23
2022-08-16T06:34:56.275Z,96217.52
2022-08-16T06:37:15.909Z,96217.96
2022-08-16T06:39:49.180Z,96214.75
2022-08-16T06:42:47.485Z,96210.17
2022-08-16T06:45:38.168Z,96204.57
2022-08-16T06:48:21.334Z,96204.35
2022-08-16T06:51:08.960Z,96206.08
2022-08-16T06:53:38.576Z,96208.09
2022-08-16T06:56:13.870Z,96206.80
2022-08-16T06:58:55.092Z,96206.55
2022-08-16T07:01:46.305Z,96206.46
2022-08-16T07:04:32.620Z,96211.73
2022-08-16T07:07:09.821Z,96211.45
2022-08-16T07:09:39.476Z,96210.88
2022-08-16T07:12:08.807Z,96217.45
2022-08-16T07:14:40.774Z,96223.04
2022-08-16T07:17:11.458Z,96224.66
2022-08-16T07:20:03.474Z,96227.20
2022-08-16T07:22:58.970Z,96230.70
2022-08-16T07:25:43.106Z,96235.05
2022-08-16T07:28:20.647Z,96234.81
2022-08-16T07:30:54.018Z,96236.29
2022-08-16T07:33:52.897Z,96235.42
2022-08-16T07:36:27.700Z,96234.66
2022-08-16T07:38:57.813Z,96235.48
2022-08-16T07:41:27.287Z,96233.42
2022-08-16T07:44:00.042Z,96234.63
2022-08-16T07:46:39.617Z,96232.23
2022-08-16T07:49:20.147Z,96231.27
2022-08-16T07:51:49.001Z,96232.74
2022-08-16T07:54:37.775Z,96235.41
2022-08-16T07:57:11.316Z,96242.38
2022-08-16T07:59:45.722Z,96246.84
2022-08-16T08:02:20.319Z,96247.27
2022-08-16T08:04:56.229Z,96253.07
2022-08-16T08:07:28.254Z,96255.70
2022-08-16T08:09:58.356Z,96257.58
2022-08-16T08:12:32.383Z,96262.16
2022-08-16T08:15:10.325Z,96265.92
2022-08-16T08:17:43.198Z,96268.86
2022-08-16T08:20:23.270Z,96270.61
2022-08-16T08:23:00.902Z,96268.27
2022-08-16T08:25:55.368Z,96272.34
2022-08-16T08:28:26.857Z,96270.58
2022-08-16T08:31:03.790Z,96275.70
2022-08-16T08:33:46.662Z,96270.25
2022-08-16T08:36:25.366Z,96273.05
2022-08-16T08:39:13.186Z,96276.61
2022-08-16T08:41:43.952Z,96274.21
2022-08-16T08:44:28.713Z,96268.77
2022-08-16T08:47:09.398Z,96273.63
2022-08-16T08:49:46.196Z,96281.48
2022-08-16T08:52:34.557Z,96293.83
2022-08-16T08:55:09.100Z,96297.20
2022-08-16T08:57:46.115Z,96300.23
2022-08-16T09:00:30.310Z,96305.28
2022-08-16T09:03:04.256Z,96312.86
2022-08-16T09:05:35.710Z,96311.30
2022-08-16T09:08:09.003Z,96309.45
2022-08-16T09:11:02.030Z,96310.98
2022-08-16T09:13:36.248Z,96317.58
2022-08-16T09:16:04.799Z,96314.70
2022-08-16T09:18:35.925Z,96311.05
2022-08-16T09:21:09.508Z,96308.89
2022-08-16T09:23:39.653Z,96306.56
2022-08-16T09:26:44.865Z,96303.55
2022-08-16T09:29:14.577Z,96304.21
2022-08-16T09:31:53.512Z,96308.08
2022-08-16T09:34:23.207Z,96302.48
2022-08-16T09:36:53.988Z,96308.38
2022-08-16T09:39:23.079Z,96308.02
2022-08-16T09:41:54.542Z,96307.36
2022-08-16T09:45:11.144Z,96306.86
2022-08-16T09:47:14.875Z,96300.41
2022-08-16T09:49:42.985Z,96304.47
2022-08-16T09:52:22.373Z,96302.41
2022-08-16T09:54:50.736Z,96301.33
2022-08-16T09:57:18.827Z,96299.31
2022-08-16T09:59:46.834Z,96294.86
2022-08-16T10:02:26.914Z,96304.00
2022-08-16T10:04:58.514Z,96306.29
2022-08-16T10:07:43.999Z,96298.92
2022-08-16T10:10:19.100Z,96305.33
2022-08-16T10:13:16.183Z,96308.86
2022-08-16T10:15:55.727Z,96305.07
2022-08-16T10:18:56.858Z,96305.15
2022-08-16T10:21:15.897Z,96296.63
2022-08-16T10:23:44.993Z,96292.77
2022-08-16T10:27:20.021Z,96294.94
2022-08-16T10:29:05.929Z,96296.80
2022-08-16T10:31:44.171Z,96304.31
2022-08-16T10:34:31.947Z,96315.55
2022-08-16T10:37:02.605Z,96305.09
2022-08-16T10:39:40.497Z,96298.42
2022-08-16T10:42:13.498Z,96306.16
2022-08-16T10:44:42.779Z,96315.30
2022-08-16T10:47:22.457Z,96298.46
2022-08-16T10:49:50.813Z,96312.35
2022-08-16T10:52:20.051Z,96301.79
2022-08-16T10:57:37.145Z,96284.13
2022-08-16T11:00:21.691Z,96282.63
2022-08-16T11:02:58.320Z,96277.93
2022-08-16T11:05:58.986Z,96275.23
2022-08-16T11:08:28.299Z,96269.61
2022-08-16T11:11:10.540Z,96267.89
2022-08-16T11:14:05.868Z,96262.86
2022-08-16T11:19:20.663Z,96244.52
2022-08-16T11:24:43.159Z,96230.17
2022-08-16T11:27:23.346Z,96236.88
2022-08-16T11:29:55.585Z,96232.59
2022-08-16T11:32:32.530Z,96225.60
2022-08-16T11:35:11.102Z,96230.98
2022-08-16T11:38:47.349Z,96235.97
2022-08-16T11:40:53.159Z,96232.23
2022-08-16T11:43:27.947Z,96222.02
2022-08-16T11:45:58.557Z,96225.64
2022-08-16T11:48:36.612Z,96222.09
2022-08-16T11:51:05.661Z,96220.63
2022-08-16T11:53:35.944Z,96217.35
2022-08-16T11:56:39.497Z,96229.14
2022-08-16T11:59:10.637Z,96237.06
2022-08-16T12:01:55.085Z,96233.80
2022-08-16T12:04:27.946Z,96240.23
2022-08-16T12:06:56.299Z,96237.23
2022-08-16T12:09:33.776Z,96233.21
2022-08-16T12:12:09.395Z,96225.87
2022-08-16T12:14:37.895Z,96223.41
2022-08-16T12:17:08.310Z,96230.09
2022-08-16T12:19:37.095Z,96229.69
2022-08-16T12:22:18.915Z,96223.63
2022-08-16T12:24:52.766Z,96220.83
2022-08-16T12:27:25.740Z,96220.86
2022-08-16T12:29:58.564Z,96224.07
2022-08-16T12:32:41.575Z,96216.90
2022-08-16T12:35:14.970Z,96212.98
2022-08-16T12:37:47.296Z,96211.56
2022-08-16T12:40:24.657Z,96209.77
2022-08-16T12:42:58.998Z,96208.29
2022-08-16T12:45:30.378Z,96201.68
2022-08-16T12:48:34.719Z,96203.27
2022-08-16T12:51:13.511Z,96198.39
2022-08-16T12:53:51.799Z,96193.11
2022-08-16T12:56:25.380Z,96197.48
2022-08-16T12:58:56.114Z,96188.25
2022-08-16T13:01:31.390Z,96187.11
2022-08-16T13:04:12.337Z,96177.96
2022-08-16T13:06:52.396Z,96169.79
2022-08-16T13:09:26.577Z,96170.30
2022-08-16T13:12:03.440Z,96172.27
2022-08-16T13:14:35.867Z,96177.48
2022-08-16T13:17:12.835Z,96174.27
2022-08-16T13:20:07.780Z,96173.75
2022-08-16T13:22:50.007Z,96162.52
2022-08-16T13:25:22.096Z,96168.24
2022-08-16T13:28:02.002Z,96161.83
2022-08-16T13:30:47.682Z,96167.13
2022-08-16T13:33:29.058Z,96163.79
2022-08-16T13:36:00.898Z,96162.27
2022-08-16T13:38:37.294Z,96165.27
2022-08-16T13:41:09.020Z,96165.61
2022-08-16T13:43:39.268Z,96169.43
2022-08-16T13:46:08.778Z,96169.69
2022-08-16T13:48:43.230Z,96159.14
2022-08-16T13:51:19.056Z,96164.22
2022-08-16T13:53:49.527Z,96170.23
2022-08-16T13:56:25.053Z,96168.77
2022-08-16T13:58:54.348Z,96165.20
2022-08-16T14:01:23.298Z,96164.15
2022-08-16T14:03:54.758Z,96154.17
2022-08-16T14:06:24.183Z,96147.59
2022-08-16T14:09:06.691Z,96149.77
2022-08-16T14:11:35.630Z,96146.52
2022-08-16T14:14:05.620Z,96144.84
2022-08-16T14:16:35.348Z,96149.99
2022-08-16T14:19:04.219Z,96151.00
2022-08-16T14:21:34.845Z,96148.82
2022-08-16T14:24:22.146Z,96146.75
2022-08-16T14:26:53.970Z,96147.08
2022-08-16T14:29:23.157Z,96143.48
2022-08-16T14:31:54.145Z,96141.94
2022-08-16T14:34:25.803Z,96144.47
2022-08-16T14:36:57.650Z,96146.05
2022-08-16T14:39:27.864Z,96152.10
2022-08-16T14:41:57.044Z,96150.21
2022-08-16T14:44:26.269Z,96151.63
2022-08-16T14:46:56.327Z,96157.33
2022-08-16T14:49:25.149Z,96156.47
2022-08-16T14:51:53.848Z,96154.89
2022-08-16T14:54:23.468Z,96153.48
2022-08-16T14:56:57.790Z,96153.92
2022-08-16T14:59:26.820Z,96152.00
2022-08-16T15:01:58.686Z,96153.95
2022-08-16T15:04:39.791Z,96149.53
2022-08-16T15:07:12.576Z,96146.87
2022-08-16T15:10:01.424Z,96147.68
2022-08-16T15:12:33.582Z,96142.77
2022-08-16T15:15:12.253Z,96148.14
2022-08-16T15:17:56.328Z,96134.27
2022-08-16T15:20:29.397Z,96145.23
2022-08-16T15:23:00.341Z,96133.25
2022-08-16T15:25:33.217Z,96138.05
2022-08-16T15:28:05.377Z,96135.80
2022-08-16T15:30:58.227Z,96133.90
2022-08-16T15:33:29.460Z,96136.21
2022-08-16T15:36:04.535Z,96134.79
2022-08-16T15:38:57.127Z,96135.91
2022-08-16T15:41:42.889Z,96133.10
2022-08-16T15:44:14.917Z,96133.30
2022-08-16T15:46:56.312Z,96131.38
2022-08-16T15:49:37.498Z,96133.92
2022-08-16T15:52:29.411Z,96132.38
2022-08-16T15:55:13.042Z,96120.79
2022-08-16T15:57:53.047Z,96119.82
2022-08-16T16:00:21.810Z,96121.07
2022-08-16T16:03:01.781Z,96122.60
2022-08-16T16:05:30.277Z,96130.25
2022-08-16T16:08:11.872Z,96128.05
2022-08-16T16:10:47.675Z,96127.73
2022-08-16T16:13:23.896Z,96127.63
2022-08-16T16:15:53.570Z,96129.05
2022-08-16T16:18:25.726Z,96131.48
2022-08-16T16:21:00.841Z,96136.66
2022-08-16T16:23:35.585Z,96135.52
2022-08-16T16:26:10.208Z,96133.11
2022-08-16T16:29:07.648Z,96139.52
2022-08-16T16:31:27.345Z,96140.73
2022-08-16T16:33:57.918Z,96144.45
2022-08-16T16:36:29.518Z,96152.95
2022-08-16T16:38:58.790Z,96151.20
2022-08-16T16:41:30.384Z,96154.16
2022-08-16T16:44:00.342Z,96149.88
2022-08-16T16:46:42.167Z,96156.70
2022-08-16T16:49:14.982Z,96154.33
2022-08-16T16:51:44.510Z,96157.32
2022-08-16T16:54:22.485Z,96156.64
2022-08-16T16:56:58.583Z,96159.04
2022-08-16T16:59:28.229Z,96162.36
2022-08-16T17:02:41.406Z,96161.11
2022-08-16T17:04:48.893Z,96164.80
2022-08-16T17:07:17.765Z,96165.45
2022-08-16T17:09:53.781Z,96170.33
2022-08-16T17:12:25.276Z,96175.42
2022-08-16T17:15:11.409Z,96176.44
2022-08-16T17:18:00.304Z,96180.10
2022-08-16T17:20:28.250Z,96190.06
2022-08-16T17:22:57.357Z,96192.58
2022-08-16T17:25:36.304Z,96192.83
2022-08-16T17:28:58.900Z,96194.59
2022-08-16T17:30:55.412Z,96194.92
2022-08-16T17:33:23.574Z,96196.94
2022-08-16T17:35:55.339Z,96205.46
2022-08-16T17:38:33.075Z,96211.58
2022-08-16T17:41:12.942Z,96212.45
2022-08-16T17:43:44.577Z,96213.42
2022-08-16T17:46:51.947Z,96217.02
2022-08-16T17:49:06.442Z,96218.10
2022-08-16T17:51:34.504Z,96223.64
2022-08-16T17:54:03.679Z,96223.65
2022-08-16T17:56:32.056Z,96227.66
2022-08-16T17:59:02.376Z,96228.89
2022-08-16T18:01:31.401Z,96227.86
2022-08-16T18:04:07.120Z,96233.66
2022-08-16T18:06:39.720Z,96234.60
2022-08-16T18:09:08.616Z,96232.92
2022-08-16T18:11:40.754Z,96232.59
2022-08-16T18:14:10.785Z,96233.83
2022-08-16T18:16:40.879Z,96232.19
2022-08-16T18:19:10.315Z,96238.20
2022-08-16T18:21:56.920Z,96240.32
2022-08-16T18:24:28.542Z,96244.98
2022-08-16T18:26:56.645Z,96250.39
2022-08-16T18:29:49.827Z,96249.11
2022-08-16T18:32:21.920Z,96260.86
2022-08-16T18:34:54.720Z,96282.45
2022-08-16T18:37:24.514Z,96316.64
2022-08-16T18:39:52.721Z,96324.08
2022-08-16T18:42:21.096Z,96331.32
2022-08-16T18:44:49.324Z,96332.41
2022-08-16T18:47:17.550Z,96337.60
2022-08-16T18:49:45.688Z,96337.41
2022-08-16T18:52:25.329Z,96342.00
2022-08-16T18:55:02.081Z,96344.06
2022-08-16T18:57:31.448Z,96343.86
2022-08-16T18:59:59.649Z,96350.17
2022-08-16T19:02:57.170Z,96353.28
2022-08-16T19:05:29.266Z,96355.58
2022-08-16T19:07:58.582Z,96359.42
2022-08-16T19:10:26.831Z,96357.47
2022-08-16T19:12:57.715Z,96353.16
2022-08-16T19:15:28.892Z,96354.70
2022-08-16T19:17:57.905Z,96353.35
2022-08-16T19:20:28.238Z,96353.27
2022-08-16T19:23:09.889Z,96366.25
2022-08-16T19:25:48.082Z,96378.08
2022-08-16T19:28:50.896Z,96379.67
2022-08-16T19:31:18.222Z,96400.09
2022-08-16T19:33:54.425Z,96404.13
2022-08-16T19:36:35.130Z,96405.31
2022-08-16T19:39:15.968Z,96405.86
2022-08-16T19:41:53.361Z,96404.61
2022-08-16T19:44:35.917Z,96412.14
2022-08-16T19:47:04.115Z,96410.19
2022-08-16T19:49:32.522Z,96407.80
2022-08-16T19:52:17.418Z,96419.32
2022-08-16T19:54:47.571Z,96441.67
2022-08-16T19:57:20.469Z,96477.64
2022-08-16T19:59:49.148Z,96491.61
2022-08-16T20:02:35.847Z,96485.59
2022-08-16T20:05:05.438Z,96472.30
2022-08-16T20:07:33.602Z,96457.42
2022-08-16T20:10:02.009Z,96436.90
2022-08-16T20:12:30.275Z,96439.50
2022-08-16T20:14:59.323Z,96445.77
2022-08-16T20:17:27.470Z,96432.39
2022-08-16T20:19:55.991Z,96422.28
2022-08-16T20:22:51.728Z,96412.01
2022-08-16T20:25:28.581Z,96399.02
2022-08-16T20:27:58.365Z,96390.97
2022-08-16T20:30:27.438Z,96396.33
2022-08-16T20:32:56.142Z,96390.65
2022-08-16T20:35:27.675Z,96377.07
2022-08-16T20:37:56.687Z,96368.38
2022-08-16T20:40:35.000Z,96362.15
2022-08-16T20:43:07.437Z,96359.67
2022-08-16T20:45:37.110Z,96354.42
2022-08-16T20:48:06.887Z,96354.98
2022-08-16T20:50:36.036Z,96353.84
2022-08-16T20:53:05.663Z,96352.59
2022-08-16T20:55:35.979Z,96351.13
2022-08-16T20:58:03.916Z,96352.36
2022-08-16T21:00:33.644Z,96347.88
2022-08-16T21:03:10.269Z,96347.88
2022-08-16T21:05:38.446Z,96346.77
2022-08-16T21:08:26.738Z,96343.13
2022-08-16T21:10:57.073Z,96340.16
2022-08-16T21:13:25.840Z,96352.83
2022-08-16T21:15:54.065Z,96348.23
2022-08-16T21:18:22.226Z,96334.65
2022-08-16T21:20:50.516Z,96330.98
2022-08-16T21:23:18.731Z,96330.28
2022-08-16T21:25:58.549Z,96331.48
2022-08-16T21:28:36.852Z,96327.46
2022-08-16T21:31:16.034Z,96324.85
2022-08-16T21:33:55.039Z,96324.03
2022-08-16T21:36:35.009Z,96324.39
2022-08-16T21:39:06.011Z,96323.64
2022-08-16T21:41:38.512Z,96319.41
2022-08-16T21:44:06.861Z,96323.27
2022-08-16T21:46:35.096Z,96323.77
2022-08-16T21:49:04.856Z,96325.98
2022-08-16T21:51:32.992Z,96319.66
2022-08-16T21:54:01.071Z,96325.17
2022-08-16T21:56:29.733Z,96332.52
2022-08-16T21:58:57.910Z,96337.63
2022-08-16T22:01:26.691Z,96335.93
2022-08-16T22:04:01.634Z,96339.23
2022-08-16T22:06:44.265Z,96334.58
2022-08-16T22:09:17.441Z,96337.85
2022-08-16T22:11:45.531Z,96337.08
2022-08-16T22:14:14.153Z,96336.63
2022-08-16T22:16:43.608Z,96338.41
2022-08-16T22:19:13.782Z,96340.27
2022-08-16T22:21:41.905Z,96350.14
2022-08-16T22:24:10.176Z,96343.92
2022-08-16T22:26:43.095Z,96340.98
2022-08-16T22:29:13.993Z,96344.32
2022-08-16T22:31:45.891Z,96342.60
2022-08-16T22:34:14.429Z,96348.79
2022-08-16T22:36:42.785Z,96353.95
2022-08-16T22:39:14.349Z,96352.36
2022-08-16T22:41:45.836Z,96355.54
2022-08-16T22:44:14.256Z,96353.77
2022-08-16T22:46:42.595Z,96351.19
2022-08-16T22:49:11.744Z,96352.29
2022-08-16T22:51:40.535Z,96353.20
2022-08-16T22:54:45.822Z,96352.34
2022-08-16T22:56:57.762Z,96349.39
2022-08-16T22:59:25.947Z,96348.60
2022-08-16T23:01:54.719Z,96344.42
2022-08-16T23:04:24.972Z,96343.67
2022-08-16T23:06:53.098Z,96339.91
2022-08-16T23:09:21.262Z,96337.23
2022-08-16T23:11:49.518Z,96342.08
2022-08-16T23:14:18.456Z,96341.79
2022-08-16T23:16:47.516Z,96343.49
2022-08-16T23:19:16.786Z,96343.05
2022-08-16T23:21:48.422Z,96343.83
2022-08-16T23:24:20.576Z,96344.50
2022-08-16T23:26:49.715Z,96344.34
2022-08-16T23:29:23.629Z,96347.40
2022-08-16T23:31:55.557Z,96342.76
2022-08-16T23:34:25.590Z,96341.09
2022-08-16T23:36:53.616Z,96338.96
2022-08-16T23:39:21.621Z,96341.96
2022-08-16T23:41:49.685Z,96342.80
2022-08-16T23:44:55.207Z,96343.48
2022-08-16T23:47:07.185Z,96342.14
2022-08-16T23:50:02.268Z,96337.84
2022-08-16T23:52:40.540Z,96337.86
2022-08-16T23:55:11.988Z,96337.56
2022-08-16T23:57:40.671Z,96341.73
